createdAt,value
2019-04-10T00:00:23.145Z,66.79
2019-04-10T00:02:51.858Z,66.19
2019-04-10T00:05:20.477Z,65.25
2019-04-10T00:07:50.022Z,64.50
2019-04-10T00:10:19.390Z,64.56
2019-04-10T00:12:48.096Z,64.26
2019-04-10T00:15:18.232Z,63.84
2019-04-10T00:17:47.238Z,64.16
2019-04-10T00:20:16.310Z,64.48
2019-04-10T00:22:44.958Z,63.72
2019-04-10T00:25:14.910Z,65.77
2019-04-10T00:27:43.567Z,65.89
2019-04-10T00:30:13.202Z,65.67
2019-04-10T00:32:41.931Z,65.33
2019-04-10T00:35:10.813Z,65.06
2019-04-10T00:37:39.541Z,64.92
2019-04-10T00:40:08.822Z,64.54
2019-04-10T00:42:37.546Z,64.33
2019-04-10T00:45:09.177Z,64.88
2019-04-10T00:47:37.786Z,64.76
2019-04-10T00:50:06.692Z,64.18
2019-04-10T00:52:35.331Z,63.99
2019-04-10T00:55:05.647Z,64.07
2019-04-10T00:57:34.377Z,63.77
2019-04-10T01:00:03.001Z,64.22
2019-04-10T01:02:32.375Z,63.87
2019-04-10T01:05:01.069Z,63.82
2019-04-10T01:07:37.592Z,65.67
2019-04-10T01:10:00.148Z,65.06
2019-04-10T01:12:28.775Z,66.19
2019-04-10T01:14:58.175Z,66.33
2019-04-10T01:17:26.942Z,65.03
2019-04-10T01:19:56.519Z,64.96
2019-04-10T01:22:25.376Z,64.08
2019-04-10T01:24:54.433Z,64.12
2019-04-10T01:27:23.665Z,64.48
2019-04-10T01:29:52.357Z,64.05
2019-04-10T01:32:21.114Z,63.88
2019-04-10T01:34:49.777Z,63.86
2019-04-10T01:37:18.746Z,64.07
2019-04-10T01:39:48.555Z,64.69
2019-04-10T01:42:17.232Z,65.21
2019-04-10T01:44:46.767Z,64.57
2019-04-10T01:47:15.720Z,63.92
2019-04-10T01:49:44.366Z,64.76
2019-04-10T01:52:13.050Z,65.45
2019-04-10T01:54:44.567Z,65.42
2019-04-10T01:57:13.118Z,63.83
2019-04-10T01:59:42.424Z,64.03
2019-04-10T02:02:31.616Z,64.57
2019-04-10T02:05:00.656Z,65.35
2019-04-10T02:07:29.924Z,64.91
2019-04-10T02:09:59.509Z,64.64
2019-04-10T02:12:28.489Z,64.31
2019-04-10T02:14:57.114Z,63.94
2019-04-10T02:17:25.770Z,64.47
2019-04-10T02:19:54.632Z,63.42
2019-04-10T02:22:24.405Z,63.07
2019-04-10T02:24:53.536Z,63.10
2019-04-10T02:27:22.481Z,62.86
2019-04-10T02:29:52.251Z,62.91
2019-04-10T02:32:21.256Z,62.40
2019-04-10T02:34:50.691Z,62.34
2019-04-10T02:37:19.455Z,63.10
2019-04-10T02:39:52.184Z,64.71
2019-04-10T02:42:18.787Z,64.14
2019-04-10T02:44:48.353Z,63.89
2019-04-10T02:47:19.238Z,63.59
2019-04-10T02:49:49.276Z,63.25
2019-04-10T02:52:17.916Z,62.92
2019-04-10T02:54:46.570Z,62.43
2019-04-10T02:57:17.197Z,62.48
2019-04-10T02:59:46.970Z,62.41
2019-04-10T03:02:16.183Z,63.38
2019-04-10T03:04:44.924Z,62.83
2019-04-10T03:07:13.550Z,63.30
2019-04-10T03:09:56.291Z,64.18
2019-04-10T03:12:14.364Z,64.26
2019-04-10T03:14:45.227Z,63.59
2019-04-10T03:17:13.324Z,63.42
2019-04-10T03:19:41.948Z,63.99
2019-04-10T03:22:10.611Z,63.38
2019-04-10T03:24:40.131Z,64.12
2019-04-10T03:27:08.772Z,65.76
2019-04-10T03:29:38.003Z,63.65
2019-04-10T03:32:28.508Z,64.00
2019-04-10T03:34:56.723Z,64.21
2019-04-10T03:37:26.439Z,64.42
2019-04-10T03:39:55.296Z,63.22
2019-04-10T03:42:23.909Z,63.74
2019-04-10T03:44:52.527Z,63.88
2019-04-10T03:47:21.335Z,63.63
2019-04-10T03:49:49.963Z,62.77
2019-04-10T03:52:19.032Z,62.61
2019-04-10T03:54:48.145Z,62.42
2019-04-10T03:57:16.830Z,63.72
2019-04-10T03:59:45.544Z,63.46
2019-04-10T04:02:14.206Z,62.91
2019-04-10T04:04:43.815Z,62.47
2019-04-10T04:07:13.393Z,62.40
2019-04-10T04:09:42.089Z,62.19
2019-04-10T04:12:10.718Z,62.45
2019-04-10T04:14:39.395Z,63.03
2019-04-10T04:17:08.181Z,62.80
2019-04-10T04:19:37.907Z,62.49
2019-04-10T04:22:06.690Z,61.95
2019-04-10T04:24:35.751Z,62.29
2019-04-10T04:27:04.811Z,61.90
2019-04-10T04:29:34.426Z,61.62
2019-04-10T04:32:03.122Z,61.62
2019-04-10T04:34:31.736Z,61.49
2019-04-10T04:37:00.453Z,61.36
2019-04-10T04:39:30.494Z,61.55
2019-04-10T04:41:59.496Z,61.83
2019-04-10T04:44:29.206Z,63.87
2019-04-10T04:46:58.895Z,64.67
2019-04-10T04:49:28.377Z,67.43
2019-04-10T04:51:58.133Z,65.06
2019-04-10T04:54:26.833Z,63.88
2019-04-10T04:56:56.154Z,63.87
2019-04-10T04:59:24.758Z,63.38
2019-04-10T05:01:53.507Z,63.84
2019-04-10T05:04:22.919Z,62.95
2019-04-10T05:06:52.144Z,63.39
2019-04-10T05:09:29.859Z,63.44
2019-04-10T05:11:51.152Z,62.97
2019-04-10T05:14:19.784Z,63.98
2019-04-10T05:16:48.451Z,64.39
2019-04-10T05:19:17.403Z,63.36
2019-04-10T05:21:45.994Z,62.68
2019-04-10T05:24:15.700Z,62.94
2019-04-10T05:26:44.842Z,63.15
2019-04-10T05:29:13.480Z,63.05
2019-04-10T05:31:42.666Z,63.34
2019-04-10T05:34:11.508Z,63.83
2019-04-10T05:36:40.160Z,64.67
2019-04-10T05:39:08.826Z,64.45
2019-04-10T05:41:37.885Z,64.68
2019-04-10T05:44:07.446Z,65.42
2019-04-10T05:46:36.753Z,64.25
2019-04-10T05:49:06.664Z,63.69
2019-04-10T05:51:35.411Z,65.13
2019-04-10T05:54:04.063Z,67.11
2019-04-10T05:56:32.692Z,66.64
2019-04-10T05:59:01.321Z,65.43
2019-04-10T06:01:35.480Z,64.96
2019-04-10T06:04:00.915Z,64.96
2019-04-10T06:06:30.626Z,64.66
2019-04-10T06:09:00.456Z,63.93
2019-04-10T06:11:29.105Z,63.79
2019-04-10T06:13:59.049Z,62.73
2019-04-10T06:16:28.179Z,61.65
2019-04-10T06:18:57.601Z,62.66
2019-04-10T06:21:27.278Z,62.58
2019-04-10T06:23:56.844Z,63.01
2019-04-10T06:26:28.043Z,61.31
2019-04-10T06:28:56.864Z,60.97
2019-04-10T06:31:25.574Z,60.58
2019-04-10T06:33:54.196Z,60.53
2019-04-10T06:36:22.827Z,60.74
2019-04-10T06:38:51.570Z,61.18
2019-04-10T06:41:20.205Z,61.93
2019-04-10T06:43:49.655Z,60.89
2019-04-10T06:46:18.371Z,60.57
2019-04-10T07:01:15.230Z,57.54
2019-04-10T07:03:51.877Z,59.48
2019-04-10T07:06:19.026Z,59.76
2019-04-10T07:08:49.858Z,61.44
2019-04-10T07:11:18.090Z,60.92
2019-04-10T07:13:45.324Z,60.97
2019-04-10T07:16:14.003Z,60.35
2019-04-10T07:18:45.890Z,60.43
2019-04-10T07:21:12.970Z,61.52
2019-04-10T07:23:42.737Z,59.71
2019-04-10T07:26:14.499Z,61.18
2019-04-10T07:28:44.909Z,59.26
2019-04-10T07:31:13.033Z,62.81
2019-04-10T07:33:42.580Z,62.21
2019-04-10T07:36:12.857Z,60.76
2019-04-10T07:38:41.617Z,60.17
2019-04-10T07:41:17.091Z,60.23
2019-04-10T07:43:40.700Z,60.47
2019-04-10T07:46:09.390Z,58.84
2019-04-10T07:48:38.026Z,60.00
2019-04-10T07:51:07.009Z,60.73
2019-04-10T07:53:35.696Z,59.53
2019-04-10T07:56:07.597Z,62.80
2019-04-10T07:58:35.528Z,61.64
2019-04-10T08:01:05.232Z,61.97
2019-04-10T08:03:33.801Z,61.30
2019-04-10T08:06:02.475Z,61.88
2019-04-10T08:08:31.160Z,61.27
2019-04-10T08:10:59.790Z,61.27
2019-04-10T08:13:28.906Z,60.01
2019-04-10T08:15:58.485Z,59.26
2019-04-10T08:18:27.618Z,59.49
2019-04-10T08:20:57.288Z,62.53
2019-04-10T08:23:26.063Z,61.40
2019-04-10T08:25:55.882Z,60.77
2019-04-10T08:28:24.579Z,59.27
2019-04-10T08:30:53.242Z,56.44
2019-04-10T08:33:21.899Z,55.57
2019-04-10T08:35:50.565Z,55.82
2019-04-10T08:38:19.256Z,57.24
2019-04-10T08:40:48.232Z,54.31
2019-04-10T08:43:17.044Z,55.47
2019-04-10T08:45:49.982Z,55.74
2019-04-10T08:48:16.045Z,57.57
2019-04-10T08:50:44.672Z,55.67
2019-04-10T08:53:13.853Z,56.43
2019-04-10T08:55:42.550Z,57.26
2019-04-10T08:58:11.467Z,57.16
2019-04-10T09:00:40.702Z,57.13
2019-04-10T09:03:09.396Z,62.03
2019-04-10T09:05:38.024Z,55.83
2019-04-10T09:08:06.697Z,56.43
2019-04-10T09:10:36.566Z,55.31
2019-04-10T09:13:06.235Z,55.91
2019-04-10T09:15:36.055Z,54.11
2019-04-10T09:18:06.008Z,53.91
2019-04-10T09:20:35.114Z,55.12
2019-04-10T09:23:28.598Z,54.99
2019-04-10T09:25:35.271Z,53.93
2019-04-10T09:28:04.327Z,53.86
2019-04-10T09:30:33.934Z,54.53
2019-04-10T09:33:15.969Z,56.61
2019-04-10T09:35:33.404Z,55.81
2019-04-10T09:38:02.216Z,53.52
2019-04-10T09:40:32.006Z,53.26
2019-04-10T09:43:00.819Z,53.19
2019-04-10T09:45:30.540Z,54.04
2019-04-10T09:47:59.985Z,54.40
2019-04-10T09:50:28.675Z,55.14
2019-04-10T09:52:57.354Z,56.37
2019-04-10T09:55:25.977Z,53.94
2019-04-10T09:57:54.613Z,52.67
2019-04-10T10:00:24.053Z,50.50
2019-04-10T10:02:52.974Z,51.37
2019-04-10T10:05:22.335Z,49.18
2019-04-10T10:07:51.159Z,50.57
2019-04-10T10:10:20.665Z,51.24
2019-04-10T10:12:50.453Z,49.55
2019-04-10T10:15:19.239Z,51.56
2019-04-10T10:17:48.826Z,51.91
2019-04-10T10:20:17.777Z,49.72
2019-04-10T10:22:47.477Z,51.42
2019-04-10T10:25:17.412Z,50.38
2019-04-10T10:27:46.867Z,48.28
2019-04-10T10:30:15.820Z,46.96
2019-04-10T10:32:45.539Z,48.31
2019-04-10T10:35:14.682Z,49.20
2019-04-10T10:37:43.402Z,48.63
2019-04-10T10:40:12.628Z,49.48
2019-04-10T10:42:41.562Z,49.32
2019-04-10T10:45:10.760Z,47.07
2019-04-10T10:47:40.367Z,48.79
2019-04-10T10:50:09.783Z,47.13
2019-04-10T10:52:39.649Z,48.57
2019-04-10T10:55:09.737Z,48.70
2019-04-10T10:57:39.455Z,46.52
2019-04-10T11:00:11.469Z,45.92
2019-04-10T11:02:38.996Z,46.26
2019-04-10T11:05:08.806Z,45.38
2019-04-10T11:07:38.897Z,45.46
2019-04-10T11:10:08.489Z,44.75
2019-04-10T11:12:38.422Z,44.35
2019-04-10T11:15:07.848Z,45.16
2019-04-10T11:17:38.460Z,47.01
2019-04-10T11:20:10.048Z,45.51
2019-04-10T11:22:39.735Z,43.59
2019-04-10T11:25:08.742Z,45.80
2019-04-10T11:27:37.400Z,46.79
2019-04-10T11:30:08.398Z,48.99
2019-04-10T11:32:38.240Z,45.82
2019-04-10T11:35:07.767Z,47.98
2019-04-10T11:37:43.831Z,45.93
2019-04-10T11:40:08.833Z,47.06
2019-04-10T11:42:39.759Z,44.86
2019-04-10T11:45:10.676Z,45.68
2019-04-10T11:47:39.590Z,45.99
2019-04-10T11:50:13.506Z,46.10
2019-04-10T11:52:46.601Z,46.27
2019-04-10T11:55:15.964Z,47.85
2019-04-10T11:57:41.961Z,45.67
2019-04-10T12:02:47.030Z,45.90
2019-04-10T12:05:18.513Z,47.63
2019-04-10T12:08:27.699Z,45.14
2019-04-10T12:12:44.061Z,44.07
2019-04-10T12:15:12.688Z,43.07
2019-04-10T12:17:42.929Z,43.87
2019-04-10T12:20:13.096Z,43.74
2019-04-10T12:22:41.794Z,43.67
2019-04-10T12:25:12.317Z,45.13
2019-04-10T12:27:41.219Z,43.93
2019-04-10T12:30:13.424Z,42.98
2019-04-10T12:32:43.079Z,42.48
2019-04-10T12:35:11.710Z,44.78
2019-04-10T12:37:41.242Z,44.84
2019-04-10T12:40:10.146Z,44.49
2019-04-10T12:42:38.820Z,44.78
2019-04-10T12:45:08.291Z,43.82
2019-04-10T12:47:37.733Z,44.43
2019-04-10T12:50:08.191Z,43.88
2019-04-10T12:52:36.841Z,45.01
2019-04-10T12:55:06.369Z,47.44
2019-04-10T12:57:35.039Z,48.80
2019-04-10T13:00:06.750Z,47.13
2019-04-10T13:02:36.463Z,46.38
2019-04-10T13:05:07.241Z,46.94
2019-04-10T13:07:36.008Z,45.44
2019-04-10T13:10:08.707Z,46.11
2019-04-10T13:12:37.695Z,46.94
2019-04-10T13:15:08.159Z,48.09
2019-04-10T13:17:36.816Z,46.74
2019-04-10T13:20:11.209Z,46.39
2019-04-10T13:22:40.206Z,46.72
2019-04-10T13:25:10.264Z,47.85
2019-04-10T13:27:39.142Z,46.07
2019-04-10T13:30:12.134Z,46.46
2019-04-10T13:32:40.439Z,48.47
2019-04-10T13:35:10.352Z,49.02
2019-04-10T13:37:38.992Z,46.35
2019-04-10T13:40:07.882Z,48.41
2019-04-10T13:42:37.146Z,47.57
2019-04-10T13:45:07.987Z,47.04
2019-04-10T13:47:36.711Z,47.01
2019-04-10T13:50:07.193Z,46.97
2019-04-10T13:52:38.505Z,45.57
2019-04-10T13:55:08.860Z,45.67
2019-04-10T13:57:39.192Z,48.08
2019-04-10T14:00:09.707Z,45.89
2019-04-10T14:02:39.514Z,47.27
2019-04-10T14:05:11.504Z,48.31
2019-04-10T14:07:40.338Z,48.29
2019-04-10T14:10:10.391Z,46.83
2019-04-10T14:12:39.214Z,46.77
2019-04-10T14:15:08.158Z,47.67
2019-04-10T14:17:37.616Z,48.29
2019-04-10T14:20:07.046Z,48.58
2019-04-10T14:22:37.902Z,47.26
2019-04-10T14:25:09.624Z,47.17
2019-04-10T14:27:38.558Z,47.39
2019-04-10T14:30:11.306Z,49.39
2019-04-10T14:32:40.072Z,47.33
2019-04-10T14:35:09.959Z,48.51
2019-04-10T14:37:38.708Z,48.57
2019-04-10T14:40:10.241Z,47.39
2019-04-10T14:42:38.881Z,46.73
2019-04-10T14:45:08.902Z,47.88
2019-04-10T14:47:37.725Z,49.19
2019-04-10T14:50:07.543Z,50.39
2019-04-10T14:52:37.127Z,50.64
2019-04-10T14:55:06.238Z,48.85
2019-04-10T14:57:35.091Z,51.43
2019-04-10T15:00:06.398Z,49.51
2019-04-10T15:02:35.137Z,51.47
2019-04-10T15:05:05.745Z,49.93
2019-04-10T15:07:35.200Z,48.39
2019-04-10T15:10:04.321Z,49.93
2019-04-10T15:12:32.953Z,49.51
2019-04-10T15:15:01.776Z,48.64
2019-04-10T15:17:30.844Z,48.90
2019-04-10T15:20:00.651Z,50.19
2019-04-10T15:22:29.330Z,47.62
2019-04-10T15:24:57.969Z,48.03
2019-04-10T15:27:27.117Z,46.99
2019-04-10T15:29:56.784Z,46.45
2019-04-10T15:32:25.464Z,45.97
2019-04-10T15:34:54.166Z,46.15
2019-04-10T15:37:22.906Z,47.50
2019-04-10T15:39:51.873Z,48.57
2019-04-10T15:42:21.718Z,47.64
2019-04-10T15:44:50.379Z,47.53
2019-04-10T15:47:22.320Z,47.75
2019-04-10T15:49:49.455Z,46.78
2019-04-10T15:52:18.156Z,47.72
2019-04-10T15:54:47.880Z,47.11
2019-04-10T15:57:16.530Z,46.22
2019-04-10T15:59:46.293Z,47.44
2019-04-10T16:02:15.394Z,48.05
2019-04-10T16:04:44.439Z,45.73
2019-04-10T16:07:14.090Z,45.32
2019-04-10T16:09:47.392Z,47.45
2019-04-10T16:12:14.804Z,47.30
2019-04-10T16:14:44.453Z,45.17
2019-04-10T16:17:26.950Z,44.99
2019-04-10T16:20:00.156Z,45.38
2019-04-10T16:22:31.211Z,46.48
2019-04-10T16:25:01.605Z,44.88
